sensor_id;sensor_type;location;lat;lon;timestamp;pressure;altitude;pressure_sealevel;temperature
51149;BMP280;37210;50.058;8.688;2022-07-29T00:01:23;100018.47;;;23.61
51149;BMP280;37210;50.058;8.688;2022-07-29T00:03:50;100022.31;;;23.71
51149;BMP280;37210;50.058;8.688;2022-07-29T00:06:17;100022.47;;;23.68
51149;BMP280;37210;50.058;8.688;2022-07-29T00:08:47;100027.97;;;23.80
51149;BMP280;37210;50.058;8.688;2022-07-29T00:11:14;100039.72;;;24.09
51149;BMP280;37210;50.058;8.688;2022-07-29T00:13:42;100044.75;;;24.14
51149;BMP280;37210;50.058;8.688;2022-07-29T00:16:09;100057.53;;;24.09
51149;BMP280;37210;50.058;8.688;2022-07-29T00:18:36;100048.56;;;24.10
51149;BMP280;37210;50.058;8.688;2022-07-29T00:21:03;100042.59;;;24.20
51149;BMP280;37210;50.058;8.688;2022-07-29T00:23:30;100048.56;;;24.10
51149;BMP280;37210;50.058;8.688;2022-07-29T00:25:59;100049.44;;;23.95
51149;BMP280;37210;50.058;8.688;2022-07-29T00:28:26;100054.28;;;23.88
51149;BMP280;37210;50.058;8.688;2022-07-29T00:30:53;100062.63;;;24.13
51149;BMP280;37210;50.058;8.688;2022-07-29T00:33:21;100063.13;;;23.89
51149;BMP280;37210;50.058;8.688;2022-07-29T00:35:49;100065.22;;;23.83
51149;BMP280;37210;50.058;8.688;2022-07-29T00:38:15;100059.59;;;24.04
51149;BMP280;37210;50.058;8.688;2022-07-29T00:40:44;100057.78;;;23.89
51149;BMP280;37210;50.058;8.688;2022-07-29T00:43:12;100065.66;;;23.76
51149;BMP280;37210;50.058;8.688;2022-07-29T00:45:40;100060.81;;;23.36
51149;BMP280;37210;50.058;8.688;2022-07-29T00:48:07;100062.63;;;23.35
51149;BMP280;37210;50.058;8.688;2022-07-29T00:50:35;100060.56;;;23.40
51149;BMP280;37210;50.058;8.688;2022-07-29T00:53:03;100060.75;;;23.20
51149;BMP280;37210;50.058;8.688;2022-07-29T00:55:32;100050.69;;;23.25
51149;BMP280;37210;50.058;8.688;2022-07-29T00:58:00;100057.03;;;23.07
51149;BMP280;37210;50.058;8.688;2022-07-29T01:00:29;100055.34;;;22.89
51149;BMP280;37210;50.058;8.688;2022-07-29T01:02:56;100052.56;;;22.75
51149;BMP280;37210;50.058;8.688;2022-07-29T01:05:24;100047.53;;;22.69
51149;BMP280;37210;50.058;8.688;2022-07-29T01:07:53;100039.66;;;22.83
51149;BMP280;37210;50.058;8.688;2022-07-29T01:10:21;100012.47;;;22.76
51149;BMP280;37210;50.058;8.688;2022-07-29T01:12:51;100029.53;;;22.89
51149;BMP280;37210;50.058;8.688;2022-07-29T01:15:21;100031.84;;;22.80
51149;BMP280;37210;50.058;8.688;2022-07-29T01:17:52;100032.56;;;22.66
51149;BMP280;37210;50.058;8.688;2022-07-29T01:20:26;100028.00;;;22.68
51149;BMP280;37210;50.058;8.688;2022-07-29T01:23:08;100031.78;;;22.64
51149;BMP280;37210;50.058;8.688;2022-07-29T01:25:54;100023.75;;;22.47
51149;BMP280;37210;50.058;8.688;2022-07-29T01:33:55;100008.63;;;22.48
51149;BMP280;37210;50.058;8.688;2022-07-29T01:36:27;100013.88;;;22.49
51149;BMP280;37210;50.058;8.688;2022-07-29T01:39:01;100006.38;;;22.40
51149;BMP280;37210;50.058;8.688;2022-07-29T01:41:36;99991.41;;;22.38
51149;BMP280;37210;50.058;8.688;2022-07-29T01:44:11;100002.38;;;22.49
51149;BMP280;37210;50.058;8.688;2022-07-29T01:46:44;99999.50;;;22.19
51149;BMP280;37210;50.058;8.688;2022-07-29T01:49:20;100002.22;;;22.69
51149;BMP280;37210;50.058;8.688;2022-07-29T01:51:51;100004.72;;;22.55
51149;BMP280;37210;50.058;8.688;2022-07-29T01:54:23;100006.44;;;22.73
51149;BMP280;37210;50.058;8.688;2022-07-29T01:56:56;100008.19;;;22.40
51149;BMP280;37210;50.058;8.688;2022-07-29T01:59:26;100010.72;;;22.25
51149;BMP280;37210;50.058;8.688;2022-07-29T02:01:57;99998.84;;;22.48
51149;BMP280;37210;50.058;8.688;2022-07-29T02:04:25;99996.78;;;22.53
51149;BMP280;37210;50.058;8.688;2022-07-29T02:06:57;100001.06;;;22.06
51149;BMP280;37210;50.058;8.688;2022-07-29T02:09:27;100001.84;;;22.42
51149;BMP280;37210;50.058;8.688;2022-07-29T02:11:56;99999.56;;;22.17
51149;BMP280;37210;50.058;8.688;2022-07-29T02:14:28;100002.38;;;22.66
51149;BMP280;37210;50.058;8.688;2022-07-29T02:16:59;100009.75;;;22.09
51149;BMP280;37210;50.058;8.688;2022-07-29T02:19:28;100009.38;;;22.17
51149;BMP280;37210;50.058;8.688;2022-07-29T02:21:58;100006.06;;;22.29
51149;BMP280;37210;50.058;8.688;2022-07-29T02:24:26;100008.03;;;22.25
51149;BMP280;37210;50.058;8.688;2022-07-29T02:26:55;100010.84;;;22.40
51149;BMP280;37210;50.058;8.688;2022-07-29T02:29:25;100012.56;;;22.06
51149;BMP280;37210;50.058;8.688;2022-07-29T02:31:56;100012.00;;;21.83
51149;BMP280;37210;50.058;8.688;2022-07-29T02:34:25;99999.72;;;22.14
51149;BMP280;37210;50.058;8.688;2022-07-29T02:36:54;100007.47;;;22.02
51149;BMP280;37210;50.058;8.688;2022-07-29T02:39:22;99995.59;;;22.09
51149;BMP280;37210;50.058;8.688;2022-07-29T02:41:55;100000.34;;;22.02
51149;BMP280;37210;50.058;8.688;2022-07-29T02:44:25;99994.84;;;21.70
51149;BMP280;37210;50.058;8.688;2022-07-29T02:46:54;99996.97;;;21.63
51149;BMP280;37210;50.058;8.688;2022-07-29T02:49:32;99997.28;;;21.38
51149;BMP280;37210;50.058;8.688;2022-07-29T02:52:03;99999.34;;;20.95
51149;BMP280;37210;50.058;8.688;2022-07-29T02:54:37;99995.28;;;21.43
51149;BMP280;37210;50.058;8.688;2022-07-29T02:57:09;99987.06;;;21.48
51149;BMP280;37210;50.058;8.688;2022-07-29T02:59:41;99983.06;;;21.39
51149;BMP280;37210;50.058;8.688;2022-07-29T03:02:15;99983.06;;;21.39
51149;BMP280;37210;50.058;8.688;2022-07-29T03:04:43;99986.94;;;21.32
51149;BMP280;37210;50.058;8.688;2022-07-29T03:07:13;99990.06;;;21.23
51149;BMP280;37210;50.058;8.688;2022-07-29T03:09:42;99994.13;;;21.30
51149;BMP280;37210;50.058;8.688;2022-07-29T03:12:10;100005.25;;;21.01
51149;BMP280;37210;50.058;8.688;2022-07-29T03:14:38;100003.44;;;20.83
51149;BMP280;37210;50.058;8.688;2022-07-29T03:17:06;99990.84;;;21.25
51149;BMP280;37210;50.058;8.688;2022-07-29T03:19:35;100004.91;;;20.90
51149;BMP280;37210;50.058;8.688;2022-07-29T03:22:03;99997.97;;;20.86
51149;BMP280;37210;50.058;8.688;2022-07-29T03:24:33;100004.81;;;20.92
51149;BMP280;37210;50.058;8.688;2022-07-29T03:27:02;100000.84;;;20.82
51149;BMP280;37210;50.058;8.688;2022-07-29T03:29:30;99994.00;;;20.76
51149;BMP280;37210;50.058;8.688;2022-07-29T03:31:57;99993.09;;;20.77
51149;BMP280;37210;50.058;8.688;2022-07-29T03:34:25;99988.88;;;20.71
51149;BMP280;37210;50.058;8.688;2022-07-29T03:36:54;99983.97;;;20.44
51149;BMP280;37210;50.058;8.688;2022-07-29T03:39:21;99979.72;;;20.40
51149;BMP280;37210;50.058;8.688;2022-07-29T03:41:53;99989.59;;;20.56
51149;BMP280;37210;50.058;8.688;2022-07-29T03:44:24;99980.22;;;21.07
51149;BMP280;37210;50.058;8.688;2022-07-29T03:46:54;99988.75;;;20.36
51149;BMP280;37210;50.058;8.688;2022-07-29T03:49:24;99987.34;;;20.47
51149;BMP280;37210;50.058;8.688;2022-07-29T03:51:54;99987.84;;;20.76
51149;BMP280;37210;50.058;8.688;2022-07-29T03:54:22;99990.50;;;20.76
51149;BMP280;37210;50.058;8.688;2022-07-29T03:56:49;99976.53;;;20.70
51149;BMP280;37210;50.058;8.688;2022-07-29T03:59:19;99990.22;;;20.23
51149;BMP280;37210;50.058;8.688;2022-07-29T04:01:47;99977.22;;;20.55
51149;BMP280;37210;50.058;8.688;2022-07-29T04:04:16;99978.03;;;20.57
51149;BMP280;37210;50.058;8.688;2022-07-29T04:06:47;99974.97;;;20.46
51149;BMP280;37210;50.058;8.688;2022-07-29T04:09:16;99979.69;;;20.60
51149;BMP280;37210;50.058;8.688;2022-07-29T04:11:43;99983.38;;;20.95
51149;BMP280;37210;50.058;8.688;2022-07-29T04:14:12;99985.91;;;20.79
51149;BMP280;37210;50.058;8.688;2022-07-29T04:16:42;99981.34;;;20.62
51149;BMP280;37210;50.058;8.688;2022-07-29T04:19:10;99995.88;;;20.14
51149;BMP280;37210;50.058;8.688;2022-07-29T04:21:37;99986.25;;;20.11
51149;BMP280;37210;50.058;8.688;2022-07-29T04:24:05;99980.38;;;20.45
51149;BMP280;37210;50.058;8.688;2022-07-29T04:26:34;99984.13;;;20.59
51149;BMP280;37210;50.058;8.688;2022-07-29T04:29:01;99980.84;;;20.34
51149;BMP280;37210;50.058;8.688;2022-07-29T04:31:28;99985.31;;;20.34
51149;BMP280;37210;50.058;8.688;2022-07-29T04:33:55;99982.97;;;20.26
51149;BMP280;37210;50.058;8.688;2022-07-29T04:36:23;99985.25;;;20.14
51149;BMP280;37210;50.058;8.688;2022-07-29T04:38:50;99989.34;;;19.80
51149;BMP280;37210;50.058;8.688;2022-07-29T04:41:17;99987.25;;;20.09
51149;BMP280;37210;50.058;8.688;2022-07-29T04:43:45;99984.91;;;20.23
51149;BMP280;37210;50.058;8.688;2022-07-29T04:46:13;99981.69;;;20.73
51149;BMP280;37210;50.058;8.688;2022-07-29T04:48:40;99983.84;;;20.65
51149;BMP280;37210;50.058;8.688;2022-07-29T04:51:07;99983.88;;;21.04
51149;BMP280;37210;50.058;8.688;2022-07-29T04:53:34;99980.91;;;20.33
51149;BMP280;37210;50.058;8.688;2022-07-29T04:56:01;99982.41;;;20.58
51149;BMP280;37210;50.058;8.688;2022-07-29T04:58:29;99986.00;;;20.96
51149;BMP280;37210;50.058;8.688;2022-07-29T05:00:57;99980.63;;;21.35
51149;BMP280;37210;50.058;8.688;2022-07-29T05:03:25;99983.72;;;21.07
51149;BMP280;37210;50.058;8.688;2022-07-29T05:05:52;99986.94;;;21.14
51149;BMP280;37210;50.058;8.688;2022-07-29T05:08:19;99983.66;;;21.09
51149;BMP280;37210;50.058;8.688;2022-07-29T05:10:46;99981.91;;;21.26
51149;BMP280;37210;50.058;8.688;2022-07-29T05:13:15;99985.34;;;21.28
51149;BMP280;37210;50.058;8.688;2022-07-29T05:15:43;99984.06;;;21.73
51149;BMP280;37210;50.058;8.688;2022-07-29T05:18:13;99991.41;;;22.03
51149;BMP280;37210;50.058;8.688;2022-07-29T05:20:41;99986.81;;;22.07
51149;BMP280;37210;50.058;8.688;2022-07-29T05:23:14;99983.88;;;22.46
51149;BMP280;37210;50.058;8.688;2022-07-29T05:25:41;99991.50;;;22.36
51149;BMP280;37210;50.058;8.688;2022-07-29T05:28:09;99996.50;;;22.25
51149;BMP280;37210;50.058;8.688;2022-07-29T05:30:37;99993.75;;;22.61
51149;BMP280;37210;50.058;8.688;2022-07-29T05:33:04;99993.84;;;22.92
51149;BMP280;37210;50.058;8.688;2022-07-29T05:35:33;99994.53;;;22.95
51149;BMP280;37210;50.058;8.688;2022-07-29T05:38:03;99992.81;;;22.94
51149;BMP280;37210;50.058;8.688;2022-07-29T05:40:30;99995.72;;;23.54
51149;BMP280;37210;50.058;8.688;2022-07-29T05:42:58;99994.31;;;23.47
51149;BMP280;37210;50.058;8.688;2022-07-29T05:45:25;99992.94;;;23.71
51149;BMP280;37210;50.058;8.688;2022-07-29T05:47:53;99988.50;;;22.92
51149;BMP280;37210;50.058;8.688;2022-07-29T05:50:20;99991.81;;;23.59
51149;BMP280;37210;50.058;8.688;2022-07-29T05:52:49;99988.06;;;23.93
51149;BMP280;37210;50.058;8.688;2022-07-29T05:55:16;99992.94;;;23.71
51149;BMP280;37210;50.058;8.688;2022-07-29T05:57:43;99992.44;;;23.64
51149;BMP280;37210;50.058;8.688;2022-07-29T06:00:12;99997.00;;;24.37
51149;BMP280;37210;50.058;8.688;2022-07-29T06:02:39;99996.47;;;24.60
51149;BMP280;37210;50.058;8.688;2022-07-29T06:05:06;99993.94;;;24.29
51149;BMP280;37210;50.058;8.688;2022-07-29T06:07:34;99998.41;;;24.87
51149;BMP280;37210;50.058;8.688;2022-07-29T06:10:03;100002.56;;;24.05
51149;BMP280;37210;50.058;8.688;2022-07-29T06:12:30;99993.28;;;23.65
51149;BMP280;37210;50.058;8.688;2022-07-29T06:14:58;99995.81;;;23.98
51149;BMP280;37210;50.058;8.688;2022-07-29T06:17:25;99996.59;;;24.15
51149;BMP280;37210;50.058;8.688;2022-07-29T06:19:52;99991.88;;;24.63
51149;BMP280;37210;50.058;8.688;2022-07-29T06:22:19;99997.09;;;24.22
51149;BMP280;37210;50.058;8.688;2022-07-29T06:24:47;99998.19;;;23.72
51149;BMP280;37210;50.058;8.688;2022-07-29T06:27:15;100002.81;;;23.84
51149;BMP280;37210;50.058;8.688;2022-07-29T06:29:42;100000.13;;;23.84
51149;BMP280;37210;50.058;8.688;2022-07-29T06:32:15;99997.41;;;24.16
51149;BMP280;37210;50.058;8.688;2022-07-29T06:34:42;99994.34;;;24.51
51149;BMP280;37210;50.058;8.688;2022-07-29T06:37:09;99994.69;;;24.17
51149;BMP280;37210;50.058;8.688;2022-07-29T06:39:36;99993.91;;;24.73
51149;BMP280;37210;50.058;8.688;2022-07-29T06:42:03;99989.25;;;24.77
51149;BMP280;37210;50.058;8.688;2022-07-29T06:44:32;99955.50;;;24.74
51149;BMP280;37210;50.058;8.688;2022-07-29T06:47:00;99991.91;;;25.19
51149;BMP280;37210;50.058;8.688;2022-07-29T06:49:28;99993.41;;;24.52
51149;BMP280;37210;50.058;8.688;2022-07-29T06:51:58;100009.47;;;23.77
51149;BMP280;37210;50.058;8.688;2022-07-29T06:54:25;100003.88;;;23.82
51149;BMP280;37210;50.058;8.688;2022-07-29T06:56:52;100001.03;;;24.44
51149;BMP280;37210;50.058;8.688;2022-07-29T06:59:19;100003.88;;;24.85
51149;BMP280;37210;50.058;8.688;2022-07-29T07:01:48;100002.34;;;24.81
51149;BMP280;37210;50.058;8.688;2022-07-29T07:04:15;100000.78;;;25.33
51149;BMP280;37210;50.058;8.688;2022-07-29T07:06:42;100003.31;;;25.63
51149;BMP280;37210;50.058;8.688;2022-07-29T07:09:10;100013.28;;;25.47
51149;BMP280;37210;50.058;8.688;2022-07-29T07:11:37;100010.34;;;25.23
51149;BMP280;37210;50.058;8.688;2022-07-29T07:14:04;100014.44;;;25.29
51149;BMP280;37210;50.058;8.688;2022-07-29T07:16:32;100018.59;;;25.75
51149;BMP280;37210;50.058;8.688;2022-07-29T07:19:00;100018.13;;;25.95
51149;BMP280;37210;50.058;8.688;2022-07-29T07:21:27;100021.91;;;25.10
51149;BMP280;37210;50.058;8.688;2022-07-29T07:23:55;100020.09;;;25.53
51149;BMP280;37210;50.058;8.688;2022-07-29T07:26:22;100020.69;;;25.70
51149;BMP280;37210;50.058;8.688;2022-07-29T07:28:49;100017.88;;;25.59
51149;BMP280;37210;50.058;8.688;2022-07-29T07:31:16;100021.22;;;26.29
51149;BMP280;37210;50.058;8.688;2022-07-29T07:33:43;100004.00;;;26.45
51149;BMP280;37210;50.058;8.688;2022-07-29T07:36:12;100020.41;;;25.75
51149;BMP280;37210;50.058;8.688;2022-07-29T07:38:39;100030.22;;;25.48
51149;BMP280;37210;50.058;8.688;2022-07-29T07:41:07;100017.50;;;26.31
51149;BMP280;37210;50.058;8.688;2022-07-29T07:43:34;100014.69;;;26.84
51149;BMP280;37210;50.058;8.688;2022-07-29T07:46:01;100010.84;;;27.25
51149;BMP280;37210;50.058;8.688;2022-07-29T07:48:28;100007.13;;;27.15
51149;BMP280;37210;50.058;8.688;2022-07-29T07:50:56;100010.19;;;27.34
51149;BMP280;37210;50.058;8.688;2022-07-29T07:53:25;100001.53;;;27.43
51149;BMP280;37210;50.058;8.688;2022-07-29T07:55:58;100011.72;;;27.25
51149;BMP280;37210;50.058;8.688;2022-07-29T07:58:25;100010.66;;;27.40
51149;BMP280;37210;50.058;8.688;2022-07-29T08:00:52;100013.47;;;26.63
51149;BMP280;37210;50.058;8.688;2022-07-29T08:03:20;100010.66;;;27.28
51149;BMP280;37210;50.058;8.688;2022-07-29T08:05:49;100000.75;;;28.01
51149;BMP280;37210;50.058;8.688;2022-07-29T08:08:17;100007.56;;;26.71
51149;BMP280;37210;50.058;8.688;2022-07-29T08:10:46;100014.56;;;26.73
51149;BMP280;37210;50.058;8.688;2022-07-29T08:13:19;100000.69;;;27.66
51149;BMP280;37210;50.058;8.688;2022-07-29T08:15:48;99999.44;;;28.06
51149;BMP280;37210;50.058;8.688;2022-07-29T08:18:23;99992.09;;;27.61
51149;BMP280;37210;50.058;8.688;2022-07-29T08:20:50;99998.97;;;27.65
51149;BMP280;37210;50.058;8.688;2022-07-29T08:23:19;99996.75;;;27.83
51149;BMP280;37210;50.058;8.688;2022-07-29T08:25:48;99998.59;;;28.06
51149;BMP280;37210;50.058;8.688;2022-07-29T08:28:15;100007.13;;;27.87
51149;BMP280;37210;50.058;8.688;2022-07-29T08:30:43;99996.22;;;28.60
51149;BMP280;37210;50.058;8.688;2022-07-29T08:33:10;100001.94;;;27.49
51149;BMP280;37210;50.058;8.688;2022-07-29T08:35:38;99990.25;;;28.32
51149;BMP280;37210;50.058;8.688;2022-07-29T08:38:05;99993.41;;;28.37
51149;BMP280;37210;50.058;8.688;2022-07-29T08:40:33;99995.00;;;27.82
51149;BMP280;37210;50.058;8.688;2022-07-29T08:43:05;99996.38;;;28.45
51149;BMP280;37210;50.058;8.688;2022-07-29T08:45:36;99999.09;;;28.11
51149;BMP280;37210;50.058;8.688;2022-07-29T08:48:09;99988.28;;;28.91
51149;BMP280;37210;50.058;8.688;2022-07-29T08:50:36;99989.63;;;29.08
51149;BMP280;37210;50.058;8.688;2022-07-29T08:53:05;99994.16;;;28.74
51149;BMP280;37210;50.058;8.688;2022-07-29T08:55:34;99993.91;;;28.99
51149;BMP280;37210;50.058;8.688;2022-07-29T08:58:01;99991.22;;;29.10
51149;BMP280;37210;50.058;8.688;2022-07-29T09:00:30;99995.25;;;29.27
51149;BMP280;37210;50.058;8.688;2022-07-29T09:02:58;100001.00;;;28.89
51149;BMP280;37210;50.058;8.688;2022-07-29T09:05:26;99998.19;;;29.13
51149;BMP280;37210;50.058;8.688;2022-07-29T09:07:54;100001.38;;;28.96
51149;BMP280;37210;50.058;8.688;2022-07-29T09:10:22;99986.66;;;29.55
51149;BMP280;37210;50.058;8.688;2022-07-29T09:12:49;99998.16;;;29.68
51149;BMP280;37210;50.058;8.688;2022-07-29T09:15:18;99995.78;;;29.86
51149;BMP280;37210;50.058;8.688;2022-07-29T09:17:47;99984.50;;;30.13
51149;BMP280;37210;50.058;8.688;2022-07-29T09:20:15;99983.00;;;30.20
51149;BMP280;37210;50.058;8.688;2022-07-29T09:22:44;99985.88;;;30.39
51149;BMP280;37210;50.058;8.688;2022-07-29T09:25:14;99986.50;;;29.68
51149;BMP280;37210;50.058;8.688;2022-07-29T09:28:04;99990.25;;;29.34
51149;BMP280;37210;50.058;8.688;2022-07-29T09:30:32;99995.22;;;28.61
51149;BMP280;37210;50.058;8.688;2022-07-29T09:33:02;99982.69;;;29.70
51149;BMP280;37210;50.058;8.688;2022-07-29T09:35:30;99976.41;;;30.13
51149;BMP280;37210;50.058;8.688;2022-07-29T09:37:57;99979.81;;;28.96
51149;BMP280;37210;50.058;8.688;2022-07-29T09:40:36;99982.53;;;28.74
51149;BMP280;37210;50.058;8.688;2022-07-29T09:43:09;99982.66;;;29.16
51149;BMP280;37210;50.058;8.688;2022-07-29T09:45:37;99978.16;;;29.71
51149;BMP280;37210;50.058;8.688;2022-07-29T09:48:13;99979.59;;;29.10
51149;BMP280;37210;50.058;8.688;2022-07-29T09:50:43;99978.28;;;30.12
51149;BMP280;37210;50.058;8.688;2022-07-29T09:53:13;99982.03;;;30.21
51149;BMP280;37210;50.058;8.688;2022-07-29T09:55:57;99978.06;;;29.61
51149;BMP280;37210;50.058;8.688;2022-07-29T09:58:25;99973.84;;;30.43
51149;BMP280;37210;50.058;8.688;2022-07-29T10:00:53;99963.66;;;30.76
51149;BMP280;37210;50.058;8.688;2022-07-29T10:03:23;99954.44;;;31.00
51149;BMP280;37210;50.058;8.688;2022-07-29T10:06:03;99960.66;;;31.00
51149;BMP280;37210;50.058;8.688;2022-07-29T10:08:32;99956.63;;;30.44
51149;BMP280;37210;50.058;8.688;2022-07-29T10:11:08;99961.47;;;30.40
51149;BMP280;37210;50.058;8.688;2022-07-29T10:13:36;99951.59;;;30.81
51149;BMP280;37210;50.058;8.688;2022-07-29T10:16:05;99953.31;;;30.82
51149;BMP280;37210;50.058;8.688;2022-07-29T10:18:34;99948.44;;;30.75
51149;BMP280;37210;50.058;8.688;2022-07-29T10:21:02;99946.50;;;31.08
51149;BMP280;37210;50.058;8.688;2022-07-29T10:23:29;99950.78;;;31.10
51149;BMP280;37210;50.058;8.688;2022-07-29T10:25:57;99948.72;;;30.93
51149;BMP280;37210;50.058;8.688;2022-07-29T10:28:24;99951.66;;;31.20
51149;BMP280;37210;50.058;8.688;2022-07-29T10:30:52;99951.59;;;31.41
51149;BMP280;37210;50.058;8.688;2022-07-29T10:33:29;99947.19;;;31.59
51149;BMP280;37210;50.058;8.688;2022-07-29T10:36:15;99943.22;;;31.63
51149;BMP280;37210;50.058;8.688;2022-07-29T10:38:55;99945.38;;;31.10
51149;BMP280;37210;50.058;8.688;2022-07-29T10:41:47;99943.63;;;31.39
51149;BMP280;37210;50.058;8.688;2022-07-29T10:44:26;99961.28;;;30.00
51149;BMP280;37210;50.058;8.688;2022-07-29T10:46:55;99951.09;;;30.66
51149;BMP280;37210;50.058;8.688;2022-07-29T10:49:24;99940.03;;;30.69
51149;BMP280;37210;50.058;8.688;2022-07-29T10:51:59;99940.13;;;31.18
51149;BMP280;37210;50.058;8.688;2022-07-29T10:54:47;99939.56;;;31.24
51149;BMP280;37210;50.058;8.688;2022-07-29T10:57:21;99952.44;;;29.78
51149;BMP280;37210;50.058;8.688;2022-07-29T11:02:53;99931.44;;;30.34
51149;BMP280;37210;50.058;8.688;2022-07-29T11:05:23;99918.69;;;30.87
51149;BMP280;37210;50.058;8.688;2022-07-29T11:10:47;99939.63;;;29.91
51149;BMP280;37210;50.058;8.688;2022-07-29T11:16:16;99924.66;;;30.60
51149;BMP280;37210;50.058;8.688;2022-07-29T11:21:48;99919.00;;;30.93
51149;BMP280;37210;50.058;8.688;2022-07-29T11:24:18;99913.47;;;31.04
51149;BMP280;37210;50.058;8.688;2022-07-29T11:27:08;99921.56;;;31.04
51149;BMP280;37210;50.058;8.688;2022-07-29T11:29:38;99917.03;;;31.05
51149;BMP280;37210;50.058;8.688;2022-07-29T11:32:10;99914.53;;;31.22
51149;BMP280;37210;50.058;8.688;2022-07-29T11:34:41;99920.81;;;31.32
51149;BMP280;37210;50.058;8.688;2022-07-29T11:37:17;99920.56;;;30.75
51149;BMP280;37210;50.058;8.688;2022-07-29T11:39:46;99931.31;;;30.56
51149;BMP280;37210;50.058;8.688;2022-07-29T11:42:47;99923.06;;;30.88
51149;BMP280;37210;50.058;8.688;2022-07-29T11:45:26;99917.63;;;31.08
51149;BMP280;37210;50.058;8.688;2022-07-29T11:48:17;99907.72;;;31.28
51149;BMP280;37210;50.058;8.688;2022-07-29T11:50:45;99909.84;;;31.24
51149;BMP280;37210;50.058;8.688;2022-07-29T11:53:16;99907.88;;;30.87
51149;BMP280;37210;50.058;8.688;2022-07-29T11:55:43;99909.44;;;31.29
51149;BMP280;37210;50.058;8.688;2022-07-29T11:58:10;99907.28;;;31.23
51149;BMP280;37210;50.058;8.688;2022-07-29T12:00:38;99900.41;;;31.19
51149;BMP280;37210;50.058;8.688;2022-07-29T12:03:07;99890.81;;;31.35
51149;BMP280;37210;50.058;8.688;2022-07-29T12:05:37;99891.22;;;31.31
51149;BMP280;37210;50.058;8.688;2022-07-29T12:08:07;99883.00;;;31.61
51149;BMP280;37210;50.058;8.688;2022-07-29T12:10:38;99878.09;;;31.17
51149;BMP280;37210;50.058;8.688;2022-07-29T12:13:06;99883.84;;;31.33
51149;BMP280;37210;50.058;8.688;2022-07-29T12:15:34;99891.81;;;31.44
51149;BMP280;37210;50.058;8.688;2022-07-29T12:18:13;99884.72;;;31.43
51149;BMP280;37210;50.058;8.688;2022-07-29T12:20:44;99878.53;;;31.22
51149;BMP280;37210;50.058;8.688;2022-07-29T12:23:13;99878.88;;;31.57
51149;BMP280;37210;50.058;8.688;2022-07-29T12:25:43;99889.19;;;30.74
51149;BMP280;37210;50.058;8.688;2022-07-29T12:28:11;99882.25;;;31.30
51149;BMP280;37210;50.058;8.688;2022-07-29T12:30:42;99884.16;;;31.49
51149;BMP280;37210;50.058;8.688;2022-07-29T12:33:12;99878.78;;;31.00
51149;BMP280;37210;50.058;8.688;2022-07-29T12:35:42;99870.31;;;31.33
51149;BMP280;37210;50.058;8.688;2022-07-29T12:38:11;99865.59;;;31.25
51149;BMP280;37210;50.058;8.688;2022-07-29T12:40:38;99867.00;;;31.10
51149;BMP280;37210;50.058;8.688;2022-07-29T12:43:11;99873.28;;;30.81
51149;BMP280;37210;50.058;8.688;2022-07-29T12:45:40;99865.44;;;30.77
51149;BMP280;37210;50.058;8.688;2022-07-29T12:48:09;99864.44;;;30.39
51149;BMP280;37210;50.058;8.688;2022-07-29T12:50:51;99850.75;;;30.91
51149;BMP280;37210;50.058;8.688;2022-07-29T12:53:20;99851.78;;;31.00
51149;BMP280;37210;50.058;8.688;2022-07-29T12:55:47;99849.13;;;30.79
51149;BMP280;37210;50.058;8.688;2022-07-29T12:58:32;99849.59;;;30.54
51149;BMP280;37210;50.058;8.688;2022-07-29T13:01:08;99848.13;;;30.80
51149;BMP280;37210;50.058;8.688;2022-07-29T13:03:44;99835.41;;;31.01
51149;BMP280;37210;50.058;8.688;2022-07-29T13:09:02;99843.38;;;30.63
51149;BMP280;37210;50.058;8.688;2022-07-29T13:11:32;99838.13;;;30.92
51149;BMP280;37210;50.058;8.688;2022-07-29T13:14:03;99832.09;;;30.88
51149;BMP280;37210;50.058;8.688;2022-07-29T13:16:31;99830.84;;;30.92
51149;BMP280;37210;50.058;8.688;2022-07-29T13:19:05;99844.72;;;30.48
51149;BMP280;37210;50.058;8.688;2022-07-29T13:21:33;99854.44;;;30.90
51149;BMP280;37210;50.058;8.688;2022-07-29T13:24:01;99848.44;;;30.26
51149;BMP280;37210;50.058;8.688;2022-07-29T13:26:28;99851.28;;;30.55
51149;BMP280;37210;50.058;8.688;2022-07-29T13:28:55;99847.91;;;30.93
51149;BMP280;37210;50.058;8.688;2022-07-29T13:31:26;99840.00;;;31.10
51149;BMP280;37210;50.058;8.688;2022-07-29T13:33:53;99846.44;;;30.49
51149;BMP280;37210;50.058;8.688;2022-07-29T13:36:21;99838.69;;;30.95
51149;BMP280;37210;50.058;8.688;2022-07-29T13:38:49;99833.66;;;30.81
51149;BMP280;37210;50.058;8.688;2022-07-29T13:41:16;99846.34;;;30.60
51149;BMP280;37210;50.058;8.688;2022-07-29T13:43:43;99842.03;;;30.48
51149;BMP280;37210;50.058;8.688;2022-07-29T13:46:10;99834.06;;;30.46
51149;BMP280;37210;50.058;8.688;2022-07-29T13:48:39;99835.59;;;30.69
51149;BMP280;37210;50.058;8.688;2022-07-29T13:51:06;99827.00;;;30.85
51149;BMP280;37210;50.058;8.688;2022-07-29T13:53:33;99836.88;;;30.75
51149;BMP280;37210;50.058;8.688;2022-07-29T13:56:00;99834.59;;;31.10
51149;BMP280;37210;50.058;8.688;2022-07-29T13:58:28;99842.25;;;30.96
51149;BMP280;37210;50.058;8.688;2022-07-29T14:00:55;99844.41;;;30.71
51149;BMP280;37210;50.058;8.688;2022-07-29T14:03:22;99844.53;;;31.10
51149;BMP280;37210;50.058;8.688;2022-07-29T14:05:51;99843.41;;;31.12
51149;BMP280;37210;50.058;8.688;2022-07-29T14:08:18;99848.94;;;30.71
51149;BMP280;37210;50.058;8.688;2022-07-29T14:10:45;99834.25;;;30.94
51149;BMP280;37210;50.058;8.688;2022-07-29T14:13:12;99833.28;;;30.95
51149;BMP280;37210;50.058;8.688;2022-07-29T14:15:40;99829.84;;;30.93
51149;BMP280;37210;50.058;8.688;2022-07-29T14:18:07;99837.66;;;30.87
51149;BMP280;37210;50.058;8.688;2022-07-29T14:20:34;99836.28;;;31.02
51149;BMP280;37210;50.058;8.688;2022-07-29T14:23:02;99848.19;;;30.59
51149;BMP280;37210;50.058;8.688;2022-07-29T14:25:30;99849.16;;;30.49
51149;BMP280;37210;50.058;8.688;2022-07-29T14:27:57;99849.38;;;30.76
51149;BMP280;37210;50.058;8.688;2022-07-29T14:30:24;99842.72;;;30.40
51149;BMP280;37210;50.058;8.688;2022-07-29T14:32:51;99840.50;;;30.85
51149;BMP280;37210;50.058;8.688;2022-07-29T14:35:18;99853.00;;;30.86
51149;BMP280;37210;50.058;8.688;2022-07-29T14:37:46;99856.72;;;30.95